Nearby METAR Reports

 

K1V6 - Canon City, Colorado, USA
Distance from station: NE 34mi, 55km
Updated: 01/29/2022 5:15am MST
Clear
Clear
 Wind from W
Wind: W 24 mph , 39 km/h
Temperature: 34°F , 1°C
Wind Chill: 22°F , -6°C
Dew Point: 5°F , -15°C
Humidity: 29%
Barometer: 30.23 inHg , 1023.7 hPa
Clouds: Clear
Visibility: 10 miles , 16 km
2022/01/29 12:15 K1V6 291215Z AUTO 28021KT 10SM CLR 01/M15 A3023 RMK AO2
K04V - Saguache Muni, Colorado, USA
Distance from station: W 35mi, 56km
Updated: 01/29/2022 5:15am MST

 Wind from N
Wind: N 5 mph , 7 km/h
Temperature: -0°F , -18°C
Wind Chill: -11°F , -24°C
Dew Point: -6°F , -21°C
Humidity: 78%
Barometer: 30.42 inHg , 1030.1 hPa
Visibility: 10 miles , 16 km
2022/01/29 12:15 K04V 291215Z AUTO 35004KT 10SM M18/M21 A3042 RMK AO2
 
KANK - Salida, Colorado, USA
Distance from station: NW 43mi, 69km
Updated: 01/29/2022 5:15am MST
Clear
Clear
 Wind from NW
Wind: NW 5 mph , 7 km/h
Temperature: 21°F , -6°C
Wind Chill: 14°F , -10°C
Dew Point: -2°F , -19°C
Humidity: 35%
Barometer: 30.45 inHg , 1031.2 hPa
Clouds: Clear
Visibility: 10 miles , 16 km
2022/01/29 12:15 KANK 291215Z AUTO 32004KT 10SM CLR M06/M19 A3045 RMK AO1 T10631189
KVTP - La Veta Pass, Colorado, USA
Distance from station: SSE 44mi, 71km
Updated: 01/29/2022 5:15am MST
Clear
Clear
 Wind from WNW
Wind: WNW 13 mph , 20 km/h
Temperature: 16°F , -9°C
Wind Chill: 2°F , -17°C
Dew Point: -4°F , -20°C
Humidity: 41%
Barometer: 30.34 inHg , 1027.4 hPa
Clouds: Clear
Visibility: 10 miles , 16 km
2022/01/29 12:15 KVTP 291215Z AUTO 29011KT 10SM CLR M09/M20 A3034 RMK AO2
 
KALS - Alamosa, Colorado, USA
Distance from station: SSW 48mi, 77km
Updated: 01/29/2022 4:52am MST
Clear
Clear
 Wind from W
Wind: W 6 mph , 9 km/h
Temperature: -6°F , -21°C
Wind Chill: -19°F , -28°C
Dew Point: -9°F , -23°C
Humidity: 84%
Barometer: 30.43 inHg , 1030.5 hPa
Clouds: Clear
Visibility: 10 miles , 16 km
2022/01/29 11:52 KALS 291152Z AUTO 26005KT 10SM CLR M21/M23 A3043 RMK AO2 SLP391 I1000 I6000 T12061228 11167 21239 56008